Wetterstation Vordersexau
Wetterdaten: Woche 02.05.11 - 08.05.11 (KW18)
Datum Zeit Temp. A. Feuchte A. Luftdruck Regen Wind Richtung Taupunkt Windchill Windben
02.05.2011 00:00 8,3 C 85 % 1005,7 hPa 0,0 l/m 0,0 km/h O-NO 5,9 C 8,3 C 0,0 km/h
02.05.2011 01:00 8,2 C 86 % 1005,4 hPa 0,0 l/m 0,0 km/h O-NO 6,0 C 8,2 C 0,0 km/h
02.05.2011 02:00 7,7 C 86 % 1005,1 hPa 0,0 l/m 0,0 km/h O-NO 5,5 C 7,7 C 0,0 km/h
02.05.2011 03:00 7,3 C 86 % 1005,0 hPa 0,0 l/m 0,0 km/h O-NO 5,1 C 7,3 C 0,0 km/h
02.05.2011 04:00 6,7 C 86 % 1005,0 hPa 0,0 l/m 0,0 km/h NO 4,5 C 6,7 C 0,0 km/h
02.05.2011 05:00 6,4 C 86 % 1004,9 hPa 0,0 l/m 0,0 km/h NO 4,2 C 6,4 C 0,0 km/h
02.05.2011 06:00 6,1 C 86 % 1004,9 hPa 0,0 l/m 0,0 km/h NO 3,9 C 6,1 C 0,0 km/h
02.05.2011 07:00 8,0 C 85 % 1005,0 hPa 0,0 l/m 0,0 km/h W 5,6 C 8,0 C 0,0 km/h
02.05.2011 08:00 13,6 C 80 % 1004,7 hPa 0,0 l/m 1,9 km/h W-SW 10,2 C 13,6 C 1,1 km/h
02.05.2011 09:00 17,8 C 63 % 1004,8 hPa 0,0 l/m 4,5 km/h W 10,7 C 17,8 C 2,5 km/h
02.05.2011 10:00 19,9 C 56 % 1004,7 hPa 0,0 l/m 0,0 km/h N-NW 10,9 C 19,9 C 0,0 km/h
02.05.2011 11:00 20,8 C 54 % 1004,2 hPa 0,0 l/m 0,0 km/h W-NW 11,1 C 20,8 C 0,0 km/h
02.05.2011 12:00 21,4 C 53 % 1003,6 hPa 0,0 l/m 0,0 km/h W-SW 11,4 C 21,4 C 0,0 km/h
02.05.2011 13:00 21,3 C 53 % 1003,0 hPa 0,0 l/m 22,7 km/h NW 11,3 C 17,5 C 12,6 km/h
02.05.2011 14:00 23,3 C 48 % 1002,3 hPa 0,0 l/m 9,7 km/h N-NW 11,7 C 22,4 C 5,4 km/h
02.05.2011 15:00 20,9 C 54 % 1002,1 hPa 0,0 l/m 0,0 km/h N-NW 11,2 C 20,9 C 0,0 km/h
02.05.2011 16:00 20,1 C 54 % 1001,8 hPa 0,0 l/m 0,0 km/h W-SW 10,5 C 20,1 C 0,0 km/h
02.05.2011 17:00 21,2 C 52 % 1001,6 hPa 0,0 l/m 0,0 km/h N-NO 10,9 C 21,2 C 0,0 km/h
02.05.2011 18:00 22,6 C 47 % 1001,1 hPa 0,0 l/m 0,0 km/h N-NO 10,7 C 22,6 C 0,0 km/h
02.05.2011 19:00 22,4 C 46 % 1001,1 hPa 0,0 l/m 3,9 km/h N-NO 10,2 C 22,4 C 2,2 km/h
02.05.2011 20:00 15,9 C 65 % 1001,2 hPa 0,0 l/m 0,0 km/h SO 9,3 C 15,9 C 0,0 km/h
02.05.2011 21:00 12,3 C 77 % 1001,7 hPa 0,0 l/m 0,0 km/h SO 8,4 C 12,3 C 0,0 km/h
02.05.2011 22:00 11,3 C 82 % 1002,0 hPa 0,0 l/m 0,0 km/h O-SO 8,3 C 11,3 C 0,0 km/h
02.05.2011 23:00 11,6 C 83 % 1002,1 hPa 0,0 l/m 0,0 km/h SO 8,8 C 11,6 C 0,0 km/h
03.05.2011 00:00 11,1 C 84 % 1002,3 hPa 0,0 l/m 0,0 km/h SO 8,5 C 11,1 C 0,0 km/h
03.05.2011 01:00 10,9 C 83 % 1002,3 hPa 0,0 l/m 0,0 km/h O-NO 8,1 C 10,9 C 0,0 km/h
03.05.2011 02:00 10,6 C 83 % 1002,5 hPa 0,0 l/m 0,0 km/h N-NO 7,8 C 10,6 C 0,0 km/h
03.05.2011 03:00 10,2 C 85 % 1002,9 hPa 0,4 l/m 0,0 km/h N-NW 7,8 C 10,2 C 0,0 km/h
03.05.2011 04:00 9,2 C 86 % 1003,8 hPa 1,8 l/m 2,6 km/h N-NW 7,0 C 9,2 C 1,4 km/h
03.05.2011 05:00 8,3 C 86 % 1004,4 hPa 0,4 l/m 0,0 km/h N-NW 6,1 C 8,3 C 0,0 km/h
03.05.2011 06:00 7,9 C 86 % 1005,1 hPa 1,8 l/m 0,6 km/h W-NW 5,7 C 7,9 C 0,4 km/h
03.05.2011 07:00 8,4 C 86 % 1005,7 hPa 0,0 l/m 0,0 km/h N-NO 6,2 C 8,4 C 0,0 km/h
03.05.2011 08:00 9,4 C 86 % 1006,9 hPa 0,0 l/m 0,0 km/h S 7,2 C 9,4 C 0,0 km/h
03.05.2011 09:00 11,6 C 82 % 1007,8 hPa 0,0 l/m 0,0 km/h W-SW 8,6 C 11,6 C 0,0 km/h
03.05.2011 10:00 14,9 C 66 % 1008,7 hPa 0,0 l/m 6,5 km/h N-NW 8,6 C 14,9 C 3,6 km/h
03.05.2011 11:00 14,4 C 65 % 1009,3 hPa 0,0 l/m 0,0 km/h O-NO 7,9 C 14,4 C 0,0 km/h
03.05.2011 12:00 17,6 C 54 % 1009,6 hPa 0,0 l/m 0,0 km/h O-NO 8,2 C 17,6 C 0,0 km/h
03.05.2011 13:00 17,3 C 53 % 1009,9 hPa 0,0 l/m 0,0 km/h N 7,6 C 17,3 C 0,0 km/h
03.05.2011 14:00 18,6 C 51 % 1010,0 hPa 0,0 l/m 14,3 km/h N-NO 8,3 C 15,7 C 7,9 km/h
03.05.2011 15:00 20,7 C 40 % 1010,2 hPa 0,0 l/m 15,6 km/h O-NO 6,6 C 18,0 C 8,6 km/h
03.05.2011 16:00 22,9 C 35 % 1010,1 hPa 0,0 l/m 5,8 km/h O-NO 6,6 C 22,9 C 3,2 km/h
03.05.2011 17:00 22,1 C 32 % 1010,0 hPa 0,0 l/m 0,0 km/h N-NO 4,6 C 22,1 C 0,0 km/h
03.05.2011 18:00 20,6 C 35 % 1010,3 hPa 0,0 l/m 1,3 km/h N 4,6 C 20,6 C 0,7 km/h
03.05.2011 19:00 16,4 C 41 % 1010,5 hPa 0,0 l/m 0,0 km/h N-NO 3,1 C 16,4 C 0,0 km/h
03.05.2011 20:00 11,8 C 52 % 1011,2 hPa 0,0 l/m 0,0 km/h NO 2,3 C 11,8 C 0,0 km/h
03.05.2011 21:00 9,8 C 57 % 1011,9 hPa 0,0 l/m 2,6 km/h O-SO 1,7 C 9,8 C 1,4 km/h
03.05.2011 22:00 8,9 C 59 % 1012,8 hPa 0,0 l/m 1,3 km/h S-SO 1,3 C 8,9 C 0,7 km/h
03.05.2011 23:00 7,8 C 63 % 1013,3 hPa 0,0 l/m 0,0 km/h O-SO 1,2 C 7,8 C 0,0 km/h
04.05.2011 00:00 6,4 C 68 % 1013,6 hPa 0,0 l/m 0,0 km/h O-SO 0,9 C 6,4 C 0,0 km/h
04.05.2011 01:00 5,3 C 78 % 1014,0 hPa 0,0 l/m 0,0 km/h SO 1,8 C 5,3 C 0,0 km/h
04.05.2011 02:00 5,2 C 81 % 1014,0 hPa 0,0 l/m 0,0 km/h O-NO 2,2 C 5,2 C 0,0 km/h
04.05.2011 03:00 5,1 C 79 % 1013,9 hPa 0,0 l/m 0,0 km/h O-NO 1,8 C 5,1 C 0,0 km/h
04.05.2011 04:00 3,2 C 81 % 1014,6 hPa 0,0 l/m 0,0 km/h N 0,3 C 3,2 C 0,0 km/h
04.05.2011 05:00 1,9 C 84 % 1015,1 hPa 0,0 l/m 0,0 km/h N -0,5 C 1,9 C 0,0 km/h
04.05.2011 06:00 0,9 C 85 % 1015,7 hPa 0,0 l/m 0,0 km/h N -1,3 C 0,9 C 0,0 km/h
04.05.2011 07:00 2,4 C 86 % 1016,2 hPa 0,0 l/m 0,0 km/h W 0,3 C 2,4 C 0,0 km/h
04.05.2011 08:00 10,5 C 72 % 1016,6 hPa 0,0 l/m 0,0 km/h W 5,7 C 10,5 C 0,0 km/h
04.05.2011 09:00 15,1 C 54 % 1017,1 hPa 0,0 l/m 0,0 km/h W-NW 5,9 C 15,1 C 0,0 km/h
04.05.2011 10:00 16,6 C 48 % 1017,3 hPa 0,0 l/m 0,0 km/h W 5,5 C 16,6 C 0,0 km/h
04.05.2011 11:00 17,1 C 50 % 1017,5 hPa 0,0 l/m 9,7 km/h W-SW 6,6 C 15,6 C 5,4 km/h
04.05.2011 12:00 17,4 C 44 % 1017,4 hPa 0,0 l/m 3,2 km/h W 5,0 C 17,4 C 1,8 km/h
04.05.2011 13:00 18,3 C 42 % 1017,2 hPa 0,0 l/m 0,0 km/h NW 5,2 C 18,3 C 0,0 km/h
04.05.2011 14:00 18,8 C 41 % 1016,9 hPa 0,0 l/m 12,3 km/h N 5,3 C 16,6 C 6,8 km/h
04.05.2011 15:00 21,5 C 35 % 1016,8 hPa 0,0 l/m 0,0 km/h W 5,4 C 21,5 C 0,0 km/h
04.05.2011 16:00 23,6 C 30 % 1016,8 hPa 0,0 l/m 3,9 km/h N 5,0 C 23,6 C 2,2 km/h
04.05.2011 17:00 24,1 C 27 % 1016,8 hPa 0,0 l/m 1,9 km/h N-NO 3,9 C 24,1 C 1,1 km/h
04.05.2011 18:00 21,8 C 26 % 1017,0 hPa 0,0 l/m 3,9 km/h N-NO 1,4 C 21,8 C 2,2 km/h
04.05.2011 19:00 18,3 C 31 % 1017,2 hPa 0,0 l/m 0,0 km/h N-NO 0,9 C 18,3 C 0,0 km/h
04.05.2011 20:00 12,4 C 40 % 1017,8 hPa 0,0 l/m 0,0 km/h N-NO -0,8 C 12,4 C 0,0 km/h
04.05.2011 21:00 7,7 C 61 % 1018,6 hPa 0,0 l/m 0,0 km/h SO 0,7 C 7,7 C 0,0 km/h
04.05.2011 22:00 5,8 C 69 % 1019,3 hPa 0,0 l/m 0,0 km/h SO 0,6 C 5,8 C 0,0 km/h
04.05.2011 23:00 4,5 C 75 % 1019,5 hPa 0,0 l/m 0,0 km/h S-SO 0,5 C 4,5 C 0,0 km/h
05.05.2011 00:00 6,4 C 70 % 1019,7 hPa 0,0 l/m 0,0 km/h S-SO 1,3 C 6,4 C 0,0 km/h
05.05.2011 01:00 5,9 C 68 % 1019,7 hPa 0,0 l/m 0,0 km/h SO 0,5 C 5,9 C 0,0 km/h
05.05.2011 02:00 5,6 C 68 % 1019,5 hPa 0,0 l/m 6,5 km/h NO 0,2 C 5,5 C 3,6 km/h
05.05.2011 03:00 5,4 C 68 % 1019,7 hPa 0,0 l/m 0,0 km/h S -0,0 C 5,4 C 0,0 km/h
05.05.2011 04:00 4,6 C 68 % 1019,9 hPa 0,0 l/m 0,0 km/h O-NO -0,8 C 4,6 C 0,0 km/h
05.05.2011 05:00 2,8 C 73 % 1020,1 hPa 0,0 l/m 0,0 km/h O-SO -1,5 C 2,8 C 0,0 km/h
05.05.2011 06:00 1,9 C 79 % 1020,5 hPa 0,0 l/m 0,0 km/h O -1,3 C 1,9 C 0,0 km/h
05.05.2011 07:00 3,8 C 79 % 1020,8 hPa 0,0 l/m 0,0 km/h NW 0,5 C 3,8 C 0,0 km/h
05.05.2011 08:00 12,2 C 59 % 1021,1 hPa 0,0 l/m 3,2 km/h W-NW 4,4 C 12,2 C 1,8 km/h
05.05.2011 09:00 15,9 C 48 % 1021,1 hPa 0,0 l/m 0,0 km/h W 4,9 C 15,9 C 0,0 km/h
05.05.2011 10:00 19,6 C 42 % 1021,0 hPa 0,0 l/m 2,6 km/h W-NW 6,3 C 19,6 C 1,4 km/h
05.05.2011 11:00 20,1 C 41 % 1020,5 hPa 0,0 l/m 23,3 km/h NW 6,4 C 15,8 C 13,0 km/h
05.05.2011 12:00 21,1 C 34 % 1020,0 hPa 0,0 l/m 11,7 km/h W-NW 4,6 C 19,4 C 6,5 km/h
05.05.2011 13:00 21,7 C 33 % 1019,7 hPa 0,0 l/m 2,6 km/h NW 4,7 C 21,7 C 1,4 km/h
05.05.2011 14:00 23,0 C 32 % 1019,3 hPa 0,0 l/m 0,0 km/h NW 5,4 C 23,0 C 0,0 km/h
05.05.2011 15:00 25,3 C 27 % 1018,6 hPa 0,0 l/m 14,9 km/h NW 4,9 C 23,7 C 8,3 km/h
05.05.2011 16:00 27,0 C 24 % 1018,3 hPa 0,0 l/m 9,7 km/h N-NW 4,7 C 26,4 C 5,4 km/h
05.05.2011 17:00 27,5 C 22 % 1018,1 hPa 0,0 l/m 0,0 km/h NW 3,9 C 27,5 C 0,0 km/h
05.05.2011 18:00 26,9 C 23 % 1018,0 hPa 0,0 l/m 7,1 km/h N-NW 4,0 C 26,8 C 4,0 km/h
05.05.2011 19:00 23,3 C 28 % 1018,0 hPa 0,0 l/m 0,0 km/h N-NW 3,8 C 23,3 C 0,0 km/h
05.05.2011 20:00 14,9 C 51 % 1018,4 hPa 0,0 l/m 0,0 km/h NO 4,9 C 14,9 C 0,0 km/h
05.05.2011 21:00 11,5 C 60 % 1018,7 hPa 0,0 l/m 0,0 km/h S-SO 4,0 C 11,5 C 0,0 km/h
05.05.2011 22:00 9,4 C 67 % 1019,1 hPa 0,0 l/m 0,0 km/h S-SO 3,6 C 9,4 C 0,0 km/h
05.05.2011 23:00 8,3 C 70 % 1019,2 hPa 0,0 l/m 0,0 km/h NO 3,2 C 8,3 C 0,0 km/h
06.05.2011 00:00 7,4 C 71 % 1019,5 hPa 0,0 l/m 0,0 km/h NO 2,5 C 7,4 C 0,0 km/h
06.05.2011 01:00 6,3 C 73 % 1019,3 hPa 0,0 l/m 0,0 km/h SO 1,8 C 6,3 C 0,0 km/h
06.05.2011 02:00 6,4 C 71 % 1019,3 hPa 0,0 l/m 0,0 km/h S-SO 1,5 C 6,4 C 0,0 km/h
06.05.2011 03:00 6,4 C 71 % 1019,5 hPa 0,0 l/m 0,0 km/h NO 1,5 C 6,4 C 0,0 km/h
06.05.2011 04:00 6,4 C 70 % 1019,7 hPa 0,0 l/m 0,0 km/h SO 1,3 C 6,4 C 0,0 km/h
06.05.2011 05:00 4,6 C 75 % 1019,7 hPa 0,0 l/m 2,6 km/h O 0,6 C 4,6 C 1,4 km/h
06.05.2011 06:00 5,2 C 75 % 1019,5 hPa 0,0 l/m 0,0 km/h NO 1,1 C 5,2 C 0,0 km/h
06.05.2011 07:00 6,3 C 75 % 1019,9 hPa 0,0 l/m 0,0 km/h SO 2,2 C 6,3 C 0,0 km/h
06.05.2011 08:00 14,4 C 58 % 1019,9 hPa 0,0 l/m 1,3 km/h W 6,2 C 14,4 C 0,7 km/h
06.05.2011 09:00 21,5 C 41 % 1019,9 hPa 0,0 l/m 1,3 km/h SW 7,7 C 21,5 C 0,7 km/h
06.05.2011 10:00 25,5 C 32 % 1019,6 hPa 0,0 l/m 0,0 km/h W-NW 7,6 C 25,5 C 0,0 km/h
06.05.2011 11:00 24,6 C 36 % 1019,4 hPa 0,0 l/m 13,6 km/h S-SO 8,5 C 23,0 C 7,6 km/h
06.05.2011 12:00 25,0 C 35 % 1019,0 hPa 0,0 l/m 9,7 km/h NW 8,5 C 24,2 C 5,4 km/h
06.05.2011 13:00 26,2 C 32 % 1018,5 hPa 0,0 l/m 0,0 km/h N-NO 8,2 C 26,2 C 0,0 km/h
06.05.2011 14:00 28,7 C 31 % 1017,9 hPa 0,0 l/m 0,0 km/h NW 9,9 C 28,7 C 0,0 km/h
06.05.2011 15:00 30,5 C 28 % 1017,5 hPa 0,0 l/m 7,1 km/h S-SW 9,9 C 30,4 C 4,0 km/h
06.05.2011 16:00 33,8 C 23 % 1016,9 hPa 0,0 l/m 0,0 km/h W 9,7 C 33,8 C 0,0 km/h
06.05.2011 17:00 32,9 C 24 % 1016,7 hPa 0,0 l/m 1,9 km/h N 9,6 C 32,9 C 1,1 km/h
06.05.2011 18:00 31,5 C 25 % 1016,5 hPa 0,0 l/m 0,0 km/h W-NW 9,1 C 31,5 C 0,0 km/h
06.05.2011 19:00 27,1 C 30 % 1016,3 hPa 0,0 l/m 0,0 km/h O-SO 8,0 C 27,1 C 0,0 km/h
06.05.2011 20:00 19,1 C 51 % 1016,7 hPa 0,0 l/m 0,0 km/h SO 8,7 C 19,1 C 0,0 km/h
06.05.2011 21:00 15,9 C 57 % 1017,0 hPa 0,0 l/m 0,0 km/h NO 7,4 C 15,9 C 0,0 km/h
06.05.2011 22:00 14,6 C 65 % 1017,2 hPa 0,0 l/m 0,0 km/h NO 8,1 C 14,6 C 0,0 km/h
06.05.2011 23:00 13,5 C 67 % 1017,2 hPa 0,0 l/m 0,0 km/h SO 7,5 C 13,5 C 0,0 km/h
07.05.2011 00:00 13,0 C 67 % 1017,4 hPa 0,0 l/m 0,0 km/h O 7,0 C 13,0 C 0,0 km/h
07.05.2011 01:00 11,8 C 69 % 1017,5 hPa 0,0 l/m 0,0 km/h NO 6,3 C 11,8 C 0,0 km/h
07.05.2011 02:00 10,4 C 73 % 1017,8 hPa 0,0 l/m 0,0 km/h O-SO 5,8 C 10,4 C 0,0 km/h
07.05.2011 03:00 9,2 C 77 % 1018,2 hPa 0,0 l/m 0,0 km/h O-NO 5,4 C 9,2 C 0,0 km/h
07.05.2011 04:00 9,1 C 79 % 1018,1 hPa 0,0 l/m 0,0 km/h SO 5,7 C 9,1 C 0,0 km/h
07.05.2011 05:00 9,6 C 78 % 1018,2 hPa 0,0 l/m 0,0 km/h O-SO 6,0 C 9,6 C 0,0 km/h
07.05.2011 06:00 9,4 C 78 % 1018,5 hPa 0,0 l/m 0,0 km/h NO 5,8 C 9,4 C 0,0 km/h
07.05.2011 07:00 11,3 C 77 % 1018,8 hPa 0,0 l/m 0,0 km/h O-SO 7,4 C 11,3 C 0,0 km/h
07.05.2011 08:00 19,4 C 60 % 1019,0 hPa 0,0 l/m 0,0 km/h S-SO 11,4 C 19,4 C 0,0 km/h
07.05.2011 09:00 22,5 C 48 % 1018,7 hPa 0,0 l/m 0,0 km/h NW 10,9 C 22,5 C 0,0 km/h
07.05.2011 10:00 24,9 C 43 % 1018,4 hPa 0,0 l/m 2,6 km/h N-NW 11,4 C 24,9 C 1,4 km/h
07.05.2011 11:00 26,3 C 40 % 1017,9 hPa 0,0 l/m 0,0 km/h W-SW 11,6 C 26,3 C 0,0 km/h
07.05.2011 12:00 24,5 C 43 % 1017,5 hPa 0,0 l/m 1,3 km/h W-SW 11,1 C 24,5 C 0,7 km/h
07.05.2011 13:00 26,2 C 42 % 1017,1 hPa 0,0 l/m 14,3 km/h O-NO 12,3 C 24,9 C 7,9 km/h
07.05.2011 14:00 29,1 C 39 % 1016,4 hPa 0,0 l/m 0,0 km/h N-NO 13,7 C 29,1 C 0,0 km/h
07.05.2011 15:00 34,3 C 28 % 1015,5 hPa 0,0 l/m 8,4 km/h SO 13,1 C 34,3 C 4,7 km/h
07.05.2011 16:00 35,3 C 20 % 1014,8 hPa 0,0 l/m 12,3 km/h S 8,9 C 35,3 C 6,8 km/h
07.05.2011 17:00 35,1 C 18 % 1014,3 hPa 0,0 l/m 25,3 km/h SO 7,2 C 35,1 C 14,0 km/h
07.05.2011 18:00 33,0 C 20 % 1013,9 hPa 0,0 l/m 1,3 km/h SO 7,0 C 33,0 C 0,7 km/h
07.05.2011 19:00 26,6 C 28 % 1013,7 hPa 0,0 l/m 9,1 km/h NO 6,6 C 26,1 C 5,0 km/h
07.05.2011 20:00 21,6 C 38 % 1013,7 hPa 0,0 l/m 0,0 km/h NO 6,7 C 21,6 C 0,0 km/h
07.05.2011 21:00 18,1 C 48 % 1014,4 hPa 0,0 l/m 0,0 km/h NO 6,9 C 18,1 C 0,0 km/h
07.05.2011 22:00 16,4 C 54 % 1014,9 hPa 0,0 l/m 0,0 km/h SO 7,1 C 16,4 C 0,0 km/h
07.05.2011 23:00 17,7 C 46 % 1015,3 hPa 0,0 l/m 0,0 km/h O-NO 5,9 C 17,7 C 0,0 km/h
08.05.2011 00:00 14,6 C 54 % 1015,4 hPa 0,0 l/m 0,0 km/h O-NO 5,4 C 14,6 C 0,0 km/h
08.05.2011 01:00 11,9 C 64 % 1015,5 hPa 0,0 l/m 0,0 km/h O-NO 5,3 C 11,9 C 0,0 km/h
08.05.2011 02:00 11,3 C 66 % 1015,5 hPa 0,0 l/m 0,0 km/h NO 5,2 C 11,3 C 0,0 km/h
08.05.2011 03:00 12,8 C 60 % 1015,5 hPa 0,0 l/m 0,0 km/h O 5,2 C 12,8 C 0,0 km/h
08.05.2011 04:00 12,6 C 59 % 1015,3 hPa 0,0 l/m 0,0 km/h O-SO 4,8 C 12,6 C 0,0 km/h
08.05.2011 05:00 9,6 C 71 % 1015,7 hPa 0,0 l/m 0,0 km/h NO 4,6 C 9,6 C 0,0 km/h
08.05.2011 06:00 9,9 C 72 % 1015,9 hPa 0,0 l/m 0,0 km/h O-NO 5,1 C 9,9 C 0,0 km/h
08.05.2011 07:00 11,8 C 71 % 1016,7 hPa 0,0 l/m 0,0 km/h O-NO 6,7 C 11,8 C 0,0 km/h
08.05.2011 08:00 22,8 C 48 % 1016,8 hPa 0,0 l/m 0,0 km/h W 11,2 C 22,8 C 0,0 km/h
08.05.2011 09:00 22,6 C 46 % 1018,1 hPa 0,0 l/m 1,9 km/h W 10,4 C 22,6 C 1,1 km/h
08.05.2011 10:00 22,5 C 46 % 1018,5 hPa 0,0 l/m 0,0 km/h W 10,3 C 22,5 C 0,0 km/h
08.05.2011 11:00 25,3 C 44 % 1018,3 hPa 0,0 l/m 0,0 km/h N-NO 12,2 C 25,3 C 0,0 km/h
08.05.2011 12:00 27,6 C 34 % 1017,9 hPa 0,0 l/m 1,3 km/h S-SW 10,3 C 27,6 C 0,7 km/h
08.05.2011 13:00 28,8 C 33 % 1017,2 hPa 0,0 l/m 1,9 km/h N 10,9 C 28,8 C 1,1 km/h
08.05.2011 14:00 30,9 C 28 % 1016,8 hPa 0,0 l/m 0,0 km/h W 10,2 C 30,9 C 0,0 km/h
08.05.2011 15:00 32,1 C 27 % 1016,4 hPa 0,0 l/m 3,2 km/h N-NW 10,7 C 32,1 C 1,8 km/h
08.05.2011 16:00 34,5 C 25 % 1015,9 hPa 0,0 l/m 0,0 km/h N-NO 11,6 C 34,5 C 0,0 km/h
08.05.2011 17:00 35,4 C 23 % 1015,8 hPa 0,0 l/m 6,5 km/h N-NO 11,1 C 35,4 C 3,6 km/h
08.05.2011 18:00 33,3 C 24 % 1015,6 hPa 0,0 l/m 11,7 km/h N-NO 10,0 C 33,3 C 6,5 km/h
08.05.2011 19:00 31,2 C 24 % 1015,5 hPa 0,0 l/m 0,0 km/h NO 8,2 C 31,2 C 0,0 km/h
08.05.2011 20:00 22,9 C 34 % 1015,8 hPa 0,0 l/m 0,0 km/h S-SO 6,2 C 22,9 C 0,0 km/h
08.05.2011 21:00 19,2 C 44 % 1016,4 hPa 0,0 l/m 0,0 km/h O-SO 6,7 C 19,2 C 0,0 km/h
08.05.2011 22:00 15,8 C 56 % 1017,0 hPa 0,0 l/m 0,0 km/h O-SO 7,0 C 15,8 C 0,0 km/h
08.05.2011 23:00 13,9 C 60 % 1017,2 hPa 0,0 l/m 0,0 km/h O-SO 6,3 C 13,9 C 0,0 km/h
Min-Datum _ 04.05.11 07.05.11 02.05.11 - 02.05.11 - 05.05.11 04.05.11 02.05.11
_ Min-Zeit 06:30 17:30 18:30 - 00:30 - 05:30 06:30 00:30
Minimum _ 0,9 C 18 % 1001,1 hPa - 0,0 km/h - -1,5 C 0,9 C 0,0 km/h
Max-Datum _ 08.05.11 02.05.11 05.05.11 03.05.11 07.05.11 - 07.05.11 08.05.11 07.05.11
_ Max-Zeit 17:30 01:30 08:30 04:30 17:30 - 14:30 17:30 17:30
Maximum _ 35,4 C 86 % 1021,1 hPa 1,8 l/m 25,3 km/h
SO
- 13,7 C 35,4 C 14,0 km/h
SO
Durchschnitt _ 16,3 C 56 % 1014,2 hPa #4,3 l/m 2,1 km/h O-NO 6,1 C 16,2 C 1,2 km/h
www.sexauwetter.de